Time;durP1;ratioP1;P1;durP2;ratioP2;P2;SDS_P1;SDS_P2;PMS_P1;PMS_P2;Temp;Humidity;BMP_temperature;BMP_pressure;BME280_temperature;BME280_humidity;BME280_pressure;Samples;Min_cycle;Max_cycle;Signal;HPM_P1;HPM_P2
2022/12/03 00:01:28;;;;;;;48.35;20.15;;;;;;;-1.90;93.52;99448.31;5016999;28;20173;-81
2022/12/03 00:03:53;;;;;;;49.13;19.25;;;;;;;-1.76;94.18;99452.97;5000483;28;20076;-80
2022/12/03 00:06:19;;;;;;;57.42;20.35;;;;;;;-1.91;94.16;99419.69;5010691;28;20029;-80
2022/12/03 00:08:44;;;;;;;52.50;21.27;;;;;;;-1.30;93.94;99448.28;5012746;28;20035;-80
2022/12/03 00:11:09;;;;;;;50.50;20.48;;;;;;;-1.00;93.55;99417.09;5016452;28;20135;-81
2022/12/03 00:13:35;;;;;;;53.22;21.10;;;;;;;-1.23;92.23;99441.44;5001590;28;20493;-81
2022/12/03 00:16:00;;;;;;;44.45;20.80;;;;;;;-1.32;92.29;99452.84;5014396;28;20036;-80
2022/12/03 00:18:26;;;;;;;53.42;21.05;;;;;;;-1.40;92.09;99452.81;5020197;28;20112;-81
2022/12/03 00:20:51;;;;;;;49.85;19.13;;;;;;;-0.42;95.98;99409.13;5000004;28;20045;-81
2022/12/03 00:23:16;;;;;;;55.00;23.05;;;;;;;-1.09;92.63;99435.59;5004122;28;20041;-81
2022/12/03 00:25:42;;;;;;;63.67;22.85;;;;;;;-1.56;93.22;99446.53;5019410;28;20033;-81
2022/12/03 00:28:07;;;;;;;55.70;23.23;;;;;;;-0.65;93.13;99457.91;5022440;28;20056;-81
2022/12/03 00:30:32;;;;;;;51.65;21.42;;;;;;;-0.56;93.18;99446.47;5026507;28;20131;-81
2022/12/03 00:32:58;;;;;;;57.25;21.92;;;;;;;-0.73;93.42;99449.22;5010916;28;20172;-80
2022/12/03 00:35:23;;;;;;;56.92;24.55;;;;;;;-0.68;94.09;99442.53;5023606;28;20047;-81
2022/12/03 00:37:48;;;;;;;59.97;22.58;;;;;;;-1.18;92.24;99449.63;5013401;28;20064;-81
2022/12/03 00:40:14;;;;;;;58.70;24.55;;;;;;;-1.77;92.68;99445.28;5004069;28;20530;-80
2022/12/03 00:42:39;;;;;;;59.15;22.70;;;;;;;-1.68;93.91;99463.47;5017908;28;20037;-80
2022/12/03 00:45:05;;;;;;;54.38;22.38;;;;;;;-1.75;93.54;99456.41;5029084;28;20030;-81
2022/12/03 00:47:31;;;;;;;60.85;22.58;;;;;;;-1.66;94.01;99471.19;5028825;28;20026;-81
2022/12/03 00:49:56;;;;;;;54.50;22.45;;;;;;;-1.79;93.76;99462.94;5007080;28;20041;-81
2022/12/03 00:52:21;;;;;;;67.03;24.08;;;;;;;-1.74;93.87;99455.44;5023292;28;20045;-80
2022/12/03 00:54:47;;;;;;;64.57;24.40;;;;;;;-1.28;93.63;99455.00;5024908;28;20046;-80
2022/12/03 00:57:12;;;;;;;65.88;24.55;;;;;;;-1.83;93.75;99436.25;5025604;28;20040;-80
2022/12/03 00:59:38;;;;;;;60.72;23.88;;;;;;;-1.99;94.07;99448.44;5018585;28;20033;-80
2022/12/03 01:02:03;;;;;;;73.30;24.58;;;;;;;-1.88;94.71;99459.44;5021957;28;20440;-80
2022/12/03 01:04:28;;;;;;;73.88;26.65;;;;;;;-1.94;94.72;99454.81;5026564;28;20120;-81
2022/12/03 01:06:54;;;;;;;74.15;25.13;;;;;;;-2.01;94.53;99427.66;5026191;28;20393;-81
2022/12/03 01:09:20;;;;;;;67.40;25.40;;;;;;;-1.65;94.42;99434.41;5025259;28;20033;-80
2022/12/03 01:11:45;;;;;;;64.50;24.95;;;;;;;-2.06;94.40;99437.75;5009721;28;20443;-80
2022/12/03 01:14:14;;;;;;;66.65;25.42;;;;;;;-1.90;94.78;99461.38;4992924;28;20044;-81
2022/12/03 01:16:40;;;;;;;59.70;23.90;;;;;;;-1.90;94.73;99464.00;5040472;28;20033;-80
2022/12/03 01:19:06;;;;;;;72.28;26.25;;;;;;;-1.74;94.41;99456.25;5021524;28;20036;-81
2022/12/03 01:21:32;;;;;;;64.85;27.27;;;;;;;-1.71;93.83;99445.50;5027330;28;20029;-80
2022/12/03 01:23:57;;;;;;;75.05;28.67;;;;;;;-1.44;94.77;99452.28;5022101;28;20060;-81
2022/12/03 01:26:24;;;;;;;69.75;27.05;;;;;;;-1.15;94.79;99447.50;5019998;28;20111;-81
2022/12/03 01:28:50;;;;;;;76.05;28.75;;;;;;;-1.38;92.99;99454.31;5022302;28;20034;-81
2022/12/03 01:34:00;;;;;;;83.00;30.42;;;;;;;-1.49;93.98;99449.34;5022368;28;20677;-81
2022/12/03 01:36:27;;;;;;;72.82;29.60;;;;;;;-1.52;93.58;99460.94;5027602;28;20029;-81
2022/12/03 01:38:53;;;;;;;65.45;26.40;;;;;;;-1.30;93.76;99449.09;5003441;28;20033;-80
2022/12/03 01:41:19;;;;;;;73.90;27.23;;;;;;;-1.23;93.44;99454.50;5022073;28;20069;-81
2022/12/03 01:43:45;;;;;;;83.63;31.27;;;;;;;-0.93;92.19;99446.09;5027888;28;21792;-80
2022/12/03 01:46:13;;;;;;;78.15;27.83;;;;;;;-1.39;92.88;99446.59;5022021;28;20033;-80
2022/12/03 01:48:38;;;;;;;78.22;28.90;;;;;;;-1.43;93.89;99446.09;5022202;28;20045;-81
2022/12/03 01:51:04;;;;;;;77.70;28.75;;;;;;;-1.40;93.98;99448.41;5026144;28;20087;-81
2022/12/03 01:53:29;;;;;;;64.10;28.35;;;;;;;-1.26;93.33;99439.13;5008729;28;20075;-80
2022/12/03 01:55:55;;;;;;;70.45;28.85;;;;;;;-1.24;92.53;99437.97;5024093;28;20123;-81
2022/12/03 01:58:25;;;;;;;72.38;26.92;;;;;;;-1.54;93.12;99435.91;5006714;28;20107;-81
2022/12/03 02:00:51;;;;;;;76.90;29.02;;;;;;;-1.54;93.52;99444.59;5015657;28;21820;-81
2022/12/03 02:03:21;;;;;;;79.80;28.90;;;;;;;-1.62;93.93;99428.81;5014837;28;20033;-81
2022/12/03 02:05:46;;;;;;;69.13;26.92;;;;;;;-1.68;93.79;99431.25;5023013;28;20029;-81
2022/12/03 02:08:45;;;;;;;69.63;27.88;;;;;;;-1.43;93.71;99448.72;5019427;28;21548;-81
2022/12/03 02:11:27;;;;;;;70.50;27.05;;;;;;;-1.87;93.53;99434.09;5017310;28;20124;-81
2022/12/03 02:13:56;;;;;;;73.45;25.92;;;;;;;-1.65;94.07;99442.25;5022469;28;20728;-80
2022/12/03 02:16:21;;;;;;;77.07;28.48;;;;;;;-1.65;94.29;99434.41;5014157;28;20033;-81
2022/12/03 02:18:47;;;;;;;73.40;28.70;;;;;;;-1.82;93.92;99451.00;5019895;28;20041;-81
2022/12/03 02:21:50;;;;;;;74.55;28.33;;;;;;;-1.64;94.65;99445.69;5020563;28;20083;-80
2022/12/03 02:24:30;;;;;;;67.40;26.27;;;;;;;-1.59;94.09;99444.22;5021834;28;20036;-80
2022/12/03 02:26:56;;;;;;;87.28;29.38;;;;;;;-1.85;94.28;99446.06;5013929;28;20437;-80
2022/12/03 02:29:21;;;;;;;86.95;30.83;;;;;;;-1.84;95.17;99445.09;5022369;28;20087;-80
2022/12/03 02:31:46;;;;;;;75.90;30.60;;;;;;;-1.70;94.17;99435.81;5018673;28;20235;-80
2022/12/03 02:34:32;;;;;;;72.45;27.00;;;;;;;-1.56;94.06;99443.09;5026991;28;20467;-81
2022/12/03 02:36:58;;;;;;;92.88;30.40;;;;;;;-1.61;95.62;99450.59;5022856;28;20029;-80
2022/12/03 02:39:24;;;;;;;85.63;31.90;;;;;;;-1.38;94.40;99446.47;5023965;28;20049;-81
2022/12/03 02:44:34;;;;;;;80.13;30.48;;;;;;;-1.34;93.03;99424.22;5024637;28;20127;-81
2022/12/03 02:47:00;;;;;;;89.72;33.05;;;;;;;-1.60;93.97;99440.00;5021440;28;20037;-81
2022/12/03 02:49:25;;;;;;;67.68;26.05;;;;;;;-1.53;94.63;99409.56;5005497;28;20481;-81
2022/12/03 02:51:51;;;;;;;85.60;33.05;;;;;;;-1.27;93.28;99434.88;5004262;28;20029;-81
2022/12/03 02:54:16;;;;;;;91.25;32.47;;;;;;;-1.32;94.06;99437.13;5027403;28;20037;-81
2022/12/03 02:56:42;;;;;;;83.65;31.38;;;;;;;-1.53;94.61;99440.97;5020410;28;20030;-81
2022/12/03 02:59:07;;;;;;;99.88;33.53;;;;;;;-1.41;93.72;99431.06;5023143;28;20386;-81
2022/12/03 03:01:33;;;;;;;79.63;28.50;;;;;;;-1.75;94.11;99425.81;5021053;28;20061;-81
2022/12/03 03:04:00;;;;;;;89.13;29.75;;;;;;;-1.98;94.36;99419.50;5016560;28;20079;-81
2022/12/03 03:06:26;;;;;;;98.80;29.92;;;;;;;-1.88;95.61;99432.47;5021822;28;20029;-81
2022/12/03 03:08:51;;;;;;;91.70;33.35;;;;;;;-1.88;95.68;99441.13;5022480;28;20044;-81
2022/12/03 03:11:17;;;;;;;81.20;30.02;;;;;;;-2.14;95.63;99424.63;5020840;28;20032;-80
2022/12/03 03:13:42;;;;;;;86.90;28.25;;;;;;;-1.96;96.07;99430.63;5022315;28;20044;-81
2022/12/03 03:16:08;;;;;;;80.20;30.20;;;;;;;-2.02;95.86;99430.41;5002090;28;20397;-80
2022/12/03 03:18:35;;;;;;;78.88;28.65;;;;;;;-1.96;96.13;99424.56;5024206;28;20074;-80
2022/12/03 03:21:00;;;;;;;71.88;26.90;;;;;;;-1.93;95.56;99434.72;5003213;28;20036;-80
2022/12/03 03:23:26;;;;;;;78.53;27.48;;;;;;;-2.14;95.85;99424.63;5003019;28;20033;-80
2022/12/03 03:26:03;;;;;;;74.97;29.73;;;;;;;-2.08;95.59;99417.97;5021382;28;20099;-80
2022/12/03 03:28:29;;;;;;;82.82;30.70;;;;;;;-1.88;95.34;99435.88;5023195;28;20679;-81
2022/12/03 03:30:57;;;;;;;91.25;29.90;;;;;;;-2.21;95.37;99407.94;5019129;28;20029;-80
2022/12/03 03:33:22;;;;;;;86.65;28.48;;;;;;;-1.91;95.80;99419.69;4980949;28;20044;-80
2022/12/03 03:35:48;;;;;;;81.32;30.83;;;;;;;-1.90;94.66;99409.06;5014881;28;20037;-80
2022/12/03 03:38:17;;;;;;;79.75;30.83;;;;;;;-2.15;95.62;99404.69;4986294;28;20033;-81
2022/12/03 03:40:43;;;;;;;76.03;26.40;;;;;;;-1.46;96.16;99395.88;5020877;28;20456;-80
2022/12/03 03:43:08;;;;;;;68.85;26.48;;;;;;;-2.03;94.87;99392.19;5019389;28;20065;-81
2022/12/03 03:45:34;;;;;;;90.05;32.35;;;;;;;-1.78;95.28;99418.31;5018154;28;20037;-80
2022/12/03 03:48:00;;;;;;;86.07;28.25;;;;;;;-1.97;95.19;99399.41;5007944;28;20033;-80
2022/12/03 03:50:30;;;;;;;73.50;28.30;;;;;;;-1.95;95.24;99413.13;5023116;28;20506;-80
2022/12/03 03:52:57;;;;;;;90.95;28.77;;;;;;;-1.87;96.06;99415.78;5004544;28;20033;-80
2022/12/03 03:55:23;;;;;;;83.80;28.75;;;;;;;-1.85;95.58;99409.44;5002326;28;20409;-80
2022/12/03 03:57:49;;;;;;;81.10;26.85;;;;;;;-1.82;94.82;99385.59;5022469;28;20025;-80
2022/12/03 04:00:14;;;;;;;74.82;26.98;;;;;;;-1.92;95.12;99392.72;5019399;28;20132;-80
2022/12/03 04:02:40;;;;;;;69.22;26.20;;;;;;;-1.51;96.19;99410.22;5014306;28;20072;-81
2022/12/03 04:05:07;;;;;;;74.35;26.58;;;;;;;-1.77;95.14;99406.84;5016979;28;20052;-80
2022/12/03 04:07:32;;;;;;;71.35;23.85;;;;;;;-2.10;94.53;99396.38;5020140;28;20034;-81
2022/12/03 04:09:57;;;;;;;70.70;24.83;;;;;;;-1.92;95.38;99403.19;5014893;28;20099;-81
2022/12/03 04:15:07;;;;;;;68.10;23.63;;;;;;;-1.87;94.95;99390.47;5015756;28;20044;-80
2022/12/03 04:17:33;;;;;;;74.40;25.83;;;;;;;-1.34;95.76;99386.72;5018217;28;20022;-80
2022/12/03 04:19:58;;;;;;;74.47;24.20;;;;;;;-1.62;94.25;99389.56;5014332;28;20086;-80
2022/12/03 04:22:38;;;;;;;68.95;24.17;;;;;;;-1.45;93.85;99382.63;5000941;28;20065;-81
2022/12/03 04:30:40;;;;;;;60.90;22.15;;;;;;;-1.79;93.32;99390.50;5009713;28;20033;-80
2022/12/03 04:35:50;;;;;;;61.92;22.08;;;;;;;-1.66;93.18;99385.63;5020546;28;20975;-81
2022/12/03 04:38:16;;;;;;;58.72;22.38;;;;;;;-1.97;93.35;99365.41;5018179;28;20033;-81
2022/12/03 04:41:00;;;;;;;56.00;20.60;;;;;;;-1.89;93.59;99389.81;5015197;28;20374;-80
2022/12/03 04:43:30;;;;;;;59.17;22.10;;;;;;;-1.60;94.35;99387.66;5014897;28;20068;-81
2022/12/03 04:45:56;;;;;;;57.63;20.20;;;;;;;-1.51;93.91;99364.94;5016149;28;20029;-81
2022/12/03 04:48:22;;;;;;;60.38;21.50;;;;;;;-1.08;93.52;99375.19;5019301;28;20552;-81
2022/12/03 04:50:47;;;;;;;58.10;22.48;;;;;;;-1.81;92.59;99389.84;5022435;28;20039;-81
2022/12/03 04:53:13;;;;;;;57.15;21.80;;;;;;;-1.92;93.55;99392.72;5017984;28;20033;-80
2022/12/03 04:55:39;;;;;;;64.85;23.08;;;;;;;-1.82;93.11;99385.59;5012191;28;20036;-81
2022/12/03 04:58:05;;;;;;;59.63;22.80;;;;;;;-2.05;93.64;99387.09;5001678;28;20034;-81
2022/12/03 05:00:30;;;;;;;61.80;20.92;;;;;;;-1.53;93.55;99378.16;5013921;28;20063;-81
2022/12/03 05:03:10;;;;;;;53.72;19.30;;;;;;;-1.79;94.80;99385.25;5007297;28;20134;-80
2022/12/03 05:05:36;;;;;;;64.55;21.30;;;;;;;-1.47;92.58;99392.44;5003691;28;20116;-80
2022/12/03 05:08:01;;;;;;;62.42;22.23;;;;;;;-1.82;92.54;99382.97;5000537;28;20069;-81
2022/12/03 05:10:27;;;;;;;51.17;20.90;;;;;;;-1.72;93.21;99375.81;4987484;28;20172;-81
2022/12/03 05:12:52;;;;;;;51.60;22.02;;;;;;;-1.72;93.27;99401.16;4998450;28;20977;-80
2022/12/03 05:15:17;;;;;;;66.30;22.30;;;;;;;-1.97;94.06;99399.41;5020979;28;20989;-80
2022/12/03 05:17:43;;;;;;;62.80;22.95;;;;;;;-1.99;94.71;99385.66;5025569;28;20163;-81
2022/12/03 05:22:53;;;;;;;66.20;23.25;;;;;;;-1.89;94.81;99378.50;5021107;28;20130;-80
2022/12/03 05:25:18;;;;;;;66.03;24.20;;;;;;;-1.98;94.37;99390.72;5020896;28;20025;-80
2022/12/03 05:27:43;;;;;;;61.20;21.85;;;;;;;-1.95;94.99;99393.03;5006038;28;20030;-81
2022/12/03 05:30:09;;;;;;;68.75;25.30;;;;;;;-2.06;95.21;99388.09;5017917;28;20068;-80
2022/12/03 05:32:35;;;;;;;85.68;25.90;;;;;;;-1.96;94.86;99386.16;4999813;28;20040;-81
2022/12/03 05:35:00;;;;;;;66.55;23.45;;;;;;;-2.03;94.71;99356.38;5019859;28;20565;-80
2022/12/03 05:37:25;;;;;;;58.78;22.80;;;;;;;-2.09;94.27;99383.16;4986699;28;20033;-80
2022/12/03 05:39:51;;;;;;;53.10;22.52;;;;;;;-2.02;94.71;99388.59;5018518;28;20073;-81
2022/12/03 05:45:00;;;;;;;65.22;23.08;;;;;;;-1.94;95.34;99392.06;5021449;28;20048;-80
2022/12/03 05:47:25;;;;;;;59.53;22.70;;;;;;;-1.99;95.08;99381.25;5018700;28;20030;-81
2022/12/03 05:49:51;;;;;;;66.40;24.15;;;;;;;-1.88;94.91;99386.19;5020468;28;20045;-80
2022/12/03 05:52:16;;;;;;;71.00;25.83;;;;;;;-1.99;94.92;99380.44;5005560;28;20454;-80
2022/12/03 05:54:41;;;;;;;62.03;24.88;;;;;;;-1.76;94.77;99373.66;5001377;28;20037;-80
2022/12/03 05:57:07;;;;;;;56.10;22.85;;;;;;;-1.69;94.90;99388.59;5002033;28;20026;-80
2022/12/03 05:59:33;;;;;;;67.68;24.40;;;;;;;-1.94;94.75;99371.13;5024693;28;20118;-81
2022/12/03 06:01:58;;;;;;;67.85;25.30;;;;;;;-1.73;94.82;99387.28;5014788;28;20038;-80
2022/12/03 06:04:23;;;;;;;63.78;24.73;;;;;;;-1.89;94.15;99383.75;5019522;28;20037;-80
2022/12/03 06:06:49;;;;;;;59.00;23.52;;;;;;;-2.11;94.98;99353.72;5004962;28;20398;-81
2022/12/03 06:09:14;;;;;;;63.85;23.10;;;;;;;-1.89;94.92;99381.13;4994764;28;20045;-81
2022/12/03 06:11:40;;;;;;;61.58;24.90;;;;;;;-2.04;94.63;99353.91;5002401;28;20037;-80
2022/12/03 06:14:05;;;;;;;60.25;23.65;;;;;;;-1.93;94.18;99382.41;4978773;28;20040;-80
2022/12/03 06:16:31;;;;;;;65.60;24.40;;;;;;;-2.01;94.97;99379.78;5016617;28;20489;-80
2022/12/03 06:18:56;;;;;;;60.83;23.42;;;;;;;-1.67;94.88;99376.16;5024271;28;20037;-80
2022/12/03 06:21:22;;;;;;;69.35;24.83;;;;;;;-1.45;93.31;99377.38;5014154;28;20421;-80
2022/12/03 06:23:47;;;;;;;63.10;24.30;;;;;;;-1.63;92.99;99379.28;5019593;28;20501;-80
2022/12/03 06:26:13;;;;;;;61.67;23.15;;;;;;;-1.90;92.81;99367.22;5018127;28;20029;-80
2022/12/03 06:28:40;;;;;;;51.40;21.08;;;;;;;-1.73;92.55;99361.09;5017568;28;20383;-80
2022/12/03 06:31:05;;;;;;;61.50;21.33;;;;;;;-1.47;93.45;99375.91;5018442;28;21660;-80
2022/12/03 06:33:31;;;;;;;62.72;21.17;;;;;;;-1.04;94.31;99378.28;5025075;28;20061;-80
2022/12/03 06:35:56;;;;;;;54.45;18.55;;;;;;;-1.63;90.60;99364.41;5015706;28;20072;-80
2022/12/03 06:38:21;;;;;;;47.15;19.27;;;;;;;-1.41;92.11;99357.75;5006233;28;20055;-80
2022/12/03 06:40:47;;;;;;;45.03;18.50;;;;;;;-1.45;91.71;99372.16;4987511;28;20037;-80
2022/12/03 06:43:13;;;;;;;47.38;19.13;;;;;;;-1.77;91.16;99349.28;5027293;28;20108;-81
2022/12/03 06:45:38;;;;;;;43.50;15.77;;;;;;;-1.44;90.45;99375.59;5020996;28;20036;-80
2022/12/03 06:48:04;;;;;;;34.70;14.80;;;;;;;-1.68;91.28;99352.75;5010532;28;20152;-80
2022/12/03 06:50:29;;;;;;;32.78;15.05;;;;;;;-1.18;93.01;99376.31;5019247;28;20040;-80
2022/12/03 06:52:55;;;;;;;41.88;18.55;;;;;;;-0.86;93.55;99382.41;5001124;28;20127;-81
2022/12/03 06:55:20;;;;;;;32.92;15.35;;;;;;;-1.39;89.38;99378.53;5021892;28;20033;-80
2022/12/03 06:57:45;;;;;;;34.08;14.60;;;;;;;-1.63;89.80;99374.03;5020304;28;20038;-80
2022/12/03 07:00:11;;;;;;;35.08;13.80;;;;;;;-1.67;90.53;99372.72;5021884;28;20034;-80
2022/12/03 07:02:37;;;;;;;32.13;13.93;;;;;;;-1.80;90.04;99373.16;5026437;28;20558;-80
2022/12/03 07:05:03;;;;;;;29.83;13.40;;;;;;;-1.58;90.73;99364.75;5019136;28;20176;-80
2022/12/03 07:07:28;;;;;;;38.42;13.60;;;;;;;-1.41;89.64;99385.72;5025459;28;20041;-80
2022/12/03 07:09:54;;;;;;;29.98;13.07;;;;;;;-1.37;91.27;99372.16;5021354;28;20029;-80
2022/12/03 07:12:20;;;;;;;26.73;11.55;;;;;;;-1.92;90.40;99394.53;5025558;28;20512;-80
2022/12/03 07:14:45;;;;;;;29.45;13.63;;;;;;;-2.11;90.06;99371.19;5022934;28;20120;-80
2022/12/03 07:17:10;;;;;;;26.38;12.75;;;;;;;-2.01;89.92;99375.34;5018008;28;20030;-80
2022/12/03 07:19:36;;;;;;;29.17;11.65;;;;;;;-1.96;89.87;99378.31;4985760;28;20163;-80
2022/12/03 07:22:01;;;;;;;27.77;12.23;;;;;;;-1.77;92.74;99372.03;5007337;28;20029;-80
2022/12/03 07:24:27;;;;;;;22.00;11.38;;;;;;;-1.98;89.77;99372.44;5026126;28;20036;-80
2022/12/03 07:26:53;;;;;;;28.58;10.35;;;;;;;-1.60;90.71;99371.13;5026784;28;20021;-80
2022/12/03 07:29:18;;;;;;;21.90;10.10;;;;;;;-1.91;89.60;99372.63;5024244;28;20026;-81
2022/12/03 07:31:44;;;;;;;27.73;11.68;;;;;;;-1.91;90.39;99375.22;5000468;28;20130;-80
2022/12/03 07:34:09;;;;;;;27.20;10.48;;;;;;;-1.99;90.09;99388.28;5003848;28;20074;-80
2022/12/03 07:36:35;;;;;;;27.60;10.27;;;;;;;-2.18;89.69;99359.75;5020372;28;20464;-80
2022/12/03 07:39:00;;;;;;;22.55;11.10;;;;;;;-2.09;90.04;99379.72;4983357;28;20034;-80
2022/12/03 07:41:25;;;;;;;25.00;12.02;;;;;;;-1.37;90.94;99366.94;5005676;28;20044;-80
2022/12/03 07:43:51;;;;;;;21.83;10.30;;;;;;;-0.81;88.68;99384.53;5004143;28;20025;-81
2022/12/03 07:46:16;;;;;;;29.02;11.80;;;;;;;-1.43;88.61;99380.66;5021059;28;20038;-80
2022/12/03 07:48:42;;;;;;;24.67;10.82;;;;;;;-1.74;88.79;99382.19;5008200;28;20030;-80
2022/12/03 07:51:07;;;;;;;25.42;10.40;;;;;;;-1.45;91.55;99376.56;5023544;28;20104;-80
2022/12/03 07:53:34;;;;;;;22.15;11.10;;;;;;;-1.86;88.97;99372.97;5014646;28;20026;-80
2022/12/03 07:56:01;;;;;;;21.23;10.52;;;;;;;-1.71;88.54;99387.09;4998405;28;20022;-80
2022/12/03 07:58:26;;;;;;;22.35;9.40;;;;;;;-1.53;88.84;99377.38;5017049;28;20065;-80
2022/12/03 08:00:51;;;;;;;22.38;10.60;;;;;;;-1.74;89.23;99375.16;5014892;28;20527;-80
2022/12/03 08:03:17;;;;;;;21.17;9.38;;;;;;;-1.80;90.20;99374.97;5019256;28;20033;-81
2022/12/03 08:05:42;;;;;;;25.15;11.73;;;;;;;-2.16;89.44;99353.38;5023583;28;20175;-80
2022/12/03 08:08:07;;;;;;;24.27;10.43;;;;;;;-2.00;90.30;99377.00;5024431;28;20398;-80
2022/12/03 08:10:33;;;;;;;19.80;9.88;;;;;;;-1.70;91.12;99366.00;5020769;28;20486;-79
2022/12/03 08:12:59;;;;;;;21.60;10.98;;;;;;;-1.87;89.36;99374.78;5010275;28;20104;-80
2022/12/03 08:15:27;;;;;;;18.95;10.63;;;;;;;-2.20;90.08;99348.59;5026674;28;20490;-80
2022/12/03 08:17:58;;;;;;;20.25;10.57;;;;;;;-2.23;90.03;99341.91;5024867;28;20037;-80
2022/12/03 08:20:39;;;;;;;23.85;11.55;;;;;;;-2.28;90.01;99331.91;5018949;28;20497;-80
2022/12/03 08:23:33;;;;;;;23.13;10.18;;;;;;;-1.96;90.90;99367.03;5025601;28;20470;-80
2022/12/03 08:26:01;;;;;;;20.45;11.70;;;;;;;-2.00;91.20;99344.78;5008203;28;20045;-80
2022/12/03 08:28:27;;;;;;;19.65;10.65;;;;;;;-1.84;90.21;99365.78;5020739;28;20110;-80
2022/12/03 08:31:18;;;;;;;23.45;12.00;;;;;;;-2.26;90.00;99329.13;5023801;28;20029;-80
2022/12/03 08:33:45;;;;;;;20.20;11.25;;;;;;;-2.04;90.24;99356.53;5022959;28;20112;-80
2022/12/03 08:36:24;;;;;;;24.75;12.63;;;;;;;-2.13;90.40;99355.69;5025042;28;20029;-81
2022/12/03 08:38:53;;;;;;;24.08;10.73;;;;;;;-2.21;90.65;99353.03;5018967;28;20557;-80
2022/12/03 08:44:10;;;;;;;29.75;10.65;;;;;;;-1.27;91.42;99356.31;5025012;28;20120;-80
2022/12/03 08:46:35;;;;;;;24.60;11.00;;;;;;;-1.47;89.71;99365.44;5021207;28;20599;-81
2022/12/03 08:49:01;;;;;;;27.08;12.73;;;;;;;-2.00;89.34;99361.31;5026006;28;20030;-80
2022/12/03 08:51:26;;;;;;;25.70;12.15;;;;;;;-1.79;90.40;99353.06;5028230;28;20038;-80
2022/12/03 08:54:03;;;;;;;28.55;12.90;;;;;;;-2.35;90.58;99324.84;5025380;28;20083;-80
2022/12/03 08:56:32;;;;;;;26.10;13.07;;;;;;;-2.36;90.98;99338.91;5017405;28;20515;-80
2022/12/03 08:59:29;;;;;;;28.95;12.95;;;;;;;-2.14;90.32;99358.47;5026209;28;20037;-81
2022/12/03 09:01:57;;;;;;;25.98;13.15;;;;;;;-2.10;91.45;99347.53;5021743;28;20056;-80
2022/12/03 09:04:28;;;;;;;25.27;11.60;;;;;;;-2.30;90.86;99365.25;4987016;28;20033;-80
2022/12/03 09:06:54;;;;;;;30.80;14.88;;;;;;;-2.26;91.57;99370.97;5021403;28;20037;-80
2022/12/03 09:09:21;;;;;;;33.53;14.55;;;;;;;-2.15;90.77;99365.47;5027293;28;20047;-80
2022/12/03 09:11:47;;;;;;;36.67;15.95;;;;;;;-2.29;91.52;99359.00;5000784;28;20021;-80
2022/12/03 09:14:12;;;;;;;33.40;14.65;;;;;;;-2.27;90.98;99361.47;5010400;28;20041;-81
2022/12/03 09:16:38;;;;;;;30.95;14.65;;;;;;;-2.19;91.83;99355.47;5028200;28;20065;-79
2022/12/03 09:19:05;;;;;;;31.90;14.40;;;;;;;-2.22;90.37;99345.31;5013183;28;20030;-80
2022/12/03 09:21:31;;;;;;;30.80;15.70;;;;;;;-2.36;90.71;99347.53;5033083;28;20025;-80
2022/12/03 09:23:56;;;;;;;35.35;14.40;;;;;;;-2.13;91.00;99344.41;5032252;28;20386;-80
2022/12/03 09:26:21;;;;;;;33.72;15.05;;;;;;;-1.95;91.55;99356.44;4988973;28;20033;-80
2022/12/03 09:28:47;;;;;;;36.85;14.73;;;;;;;-0.77;93.18;99355.22;5026094;28;20022;-81
2022/12/03 09:31:13;;;;;;;32.58;15.68;;;;;;;-1.33;89.33;99349.91;5026786;28;20448;-81
2022/12/03 09:33:38;;;;;;;28.27;13.20;;;;;;;-0.09;92.94;99339.88;5026542;28;20080;-81
2022/12/03 09:36:05;;;;;;;39.58;16.00;;;;;;;-0.91;88.35;99334.09;5015953;28;20105;-80
2022/12/03 09:38:30;;;;;;;36.88;15.07;;;;;;;-1.34;88.57;99366.63;5025186;28;20076;-80
2022/12/03 09:40:56;;;;;;;32.47;14.75;;;;;;;-1.71;89.75;99340.84;5024253;28;20464;-80
2022/12/03 09:43:21;;;;;;;30.58;14.60;;;;;;;-1.37;88.76;99366.09;5020309;28;20056;-80
2022/12/03 09:45:48;;;;;;;30.92;14.32;;;;;;;-1.55;88.63;99371.44;5008796;28;20037;-80
2022/12/03 09:48:20;;;;;;;35.40;15.13;;;;;;;-2.06;88.29;99351.47;5004889;28;20040;-81
2022/12/03 09:50:47;;;;;;;35.60;15.07;;;;;;;-2.04;88.69;99364.38;5023515;28;20060;-80
2022/12/03 09:53:17;;;;;;;36.13;16.38;;;;;;;-2.16;89.58;99355.19;5025395;28;20045;-80
2022/12/03 09:55:44;;;;;;;31.40;13.93;;;;;;;-0.90;93.27;99357.53;5027181;28;20021;-81
2022/12/03 09:58:12;;;;;;;39.67;17.75;;;;;;;-1.95;88.98;99369.50;5021443;28;20028;-80
2022/12/03 10:00:38;;;;;;;38.53;16.65;;;;;;;-1.03;90.99;99358.97;5020549;28;20457;-81
2022/12/03 10:03:05;;;;;;;39.25;17.90;;;;;;;-1.45;87.84;99364.28;5025348;28;20029;-81
2022/12/03 10:05:32;;;;;;;42.40;17.85;;;;;;;-1.28;88.53;99347.66;5009941;28;20056;-81
2022/12/03 10:08:06;;;;;;;33.83;16.60;;;;;;;-1.97;88.76;99361.00;5027629;28;20033;-80
2022/12/03 10:10:33;;;;;;;42.47;17.98;;;;;;;-2.04;89.63;99354.75;5030934;28;20444;-81
2022/12/03 10:12:58;;;;;;;36.83;18.23;;;;;;;-2.37;90.22;99358.16;5029232;28;20033;-81
2022/12/03 10:15:24;;;;;;;45.63;20.48;;;;;;;-2.20;90.09;99348.59;5008953;28;20447;-80
2022/12/03 10:17:53;;;;;;;40.40;17.73;;;;;;;-1.93;90.15;99364.13;5027334;28;20025;-81
2022/12/03 10:20:21;;;;;;;40.10;19.70;;;;;;;-1.61;90.56;99343.31;5024751;28;20065;-82
2022/12/03 10:22:47;;;;;;;37.38;19.98;;;;;;;-0.75;91.66;99331.47;5027522;28;20041;-80
2022/12/03 10:25:22;;;;;;;47.17;20.25;;;;;;;-1.51;88.08;99325.69;5010754;28;20033;-81
2022/12/03 10:28:02;;;;;;;48.00;20.88;;;;;;;-1.66;87.58;99328.06;5020399;28;20639;-81
2022/12/03 10:30:28;;;;;;;49.38;22.90;;;;;;;-2.05;89.50;99313.06;5026064;28;20041;-80
2022/12/03 10:32:56;;;;;;;46.75;21.15;;;;;;;-2.16;90.65;99318.59;5023051;28;20032;-80
2022/12/03 10:35:43;;;;;;;46.97;21.73;;;;;;;-1.93;90.67;99324.88;5017723;28;20146;-80
2022/12/03 10:38:28;;;;;;;47.08;21.70;;;;;;;-2.07;90.77;99322.84;5025949;28;20391;-81
2022/12/03 10:40:54;;;;;;;50.75;23.67;;;;;;;-2.15;90.01;99307.97;5026741;28;20479;-81
2022/12/03 10:43:25;;;;;;;52.50;22.27;;;;;;;-2.03;90.33;99296.22;4999793;28;20037;-81
2022/12/03 10:46:14;;;;;;;44.15;20.55;;;;;;;-2.27;91.21;99307.41;5028522;28;20037;-81
2022/12/03 10:48:40;;;;;;;49.00;22.20;;;;;;;-1.90;91.58;99314.91;5025722;28;20428;-81
2022/12/03 10:51:13;;;;;;;57.35;24.42;;;;;;;-1.94;89.72;99300.50;5024485;28;20092;-81
2022/12/03 10:53:39;;;;;;;52.55;23.83;;;;;;;-1.94;90.39;99295.28;5027804;28;20029;-81
2022/12/03 10:56:07;;;;;;;56.33;23.48;;;;;;;-1.50;90.69;99308.97;5030903;28;20032;-81
2022/12/03 10:58:37;;;;;;;58.33;24.00;;;;;;;-1.79;90.82;99290.28;5032468;28;20025;-81
2022/12/03 11:01:14;;;;;;;61.58;23.92;;;;;;;-2.05;91.23;99313.06;5023912;28;20485;-81
2022/12/03 11:03:40;;;;;;;54.33;24.90;;;;;;;-1.12;90.72;99295.31;5027813;28;20427;-81
2022/12/03 11:06:06;;;;;;;61.95;27.15;;;;;;;-1.41;89.68;99288.88;5014204;28;20040;-81
2022/12/03 11:08:34;;;;;;;60.85;26.83;;;;;;;-0.99;90.62;99289.56;5004651;28;20026;-81
2022/12/03 11:11:03;;;;;;;59.28;28.13;;;;;;;-1.58;89.93;99296.72;5022954;28;20072;-81
2022/12/03 11:13:31;;;;;;;65.47;27.20;;;;;;;-0.54;88.35;99304.72;5023080;28;20490;-81
2022/12/03 11:15:58;;;;;;;61.35;25.45;;;;;;;-0.39;88.65;99306.50;5022855;28;20052;-81
2022/12/03 11:18:49;;;;;;;63.65;26.55;;;;;;;-1.60;89.49;99301.28;5030261;28;20041;-81
2022/12/03 11:21:15;;;;;;;54.78;24.15;;;;;;;-2.07;91.33;99301.94;5028242;28;20129;-81
2022/12/03 11:23:43;;;;;;;51.75;24.42;;;;;;;-1.87;91.77;99301.53;5028373;28;20132;-81
2022/12/03 11:26:14;;;;;;;66.45;25.83;;;;;;;-2.06;92.49;99293.13;5029821;28;20033;-81
2022/12/03 11:28:56;;;;;;;65.03;27.67;;;;;;;-2.24;92.83;99300.22;5031107;28;20057;-80
2022/12/03 11:31:43;;;;;;;70.53;23.98;;;;;;;-2.00;91.55;99288.09;5029883;28;20030;-81
2022/12/03 11:34:18;;;;;;;66.40;26.08;;;;;;;-2.11;92.01;99283.13;5023562;28;20036;-82
2022/12/03 11:37:08;;;;;;;57.42;25.42;;;;;;;-2.08;92.20;99282.81;5027327;28;20417;-82
2022/12/03 11:39:43;;;;;;;71.88;28.90;;;;;;;-1.69;90.92;99270.84;5032530;28;20048;-82
2022/12/03 11:42:35;;;;;;;62.10;27.77;;;;;;;-1.71;90.91;99240.59;5026835;28;20029;-81
2022/12/03 11:45:10;;;;;;;65.93;25.70;;;;;;;-0.87;92.24;99275.13;5029417;28;20477;-82